Time;durP1;ratioP1;P1;durP2;ratioP2;P2;SDS_P1;SDS_P2;PMS_P1;PMS_P2;Temp;Humidity;BMP_temperature;BMP_pressure;BME280_temperature;BME280_humidity;BME280_pressure;Samples;Min_cycle;Max_cycle;Signal;HPM_P1;HPM_P2
2023/06/24 00:02:13;;;;;;;0.35;0.35;;;18.80;99.90;;;;;;5147266;27;20038;-67
2023/06/24 00:04:39;;;;;;;0.32;0.32;;;18.80;99.90;;;;;;5146257;27;20073;-66
2023/06/24 00:07:05;;;;;;;8.40;0.65;;;18.80;99.90;;;;;;5152389;27;20096;-66
2023/06/24 00:09:30;;;;;;;2.75;1.13;;;18.80;99.90;;;;;;5146975;27;20030;-66
2023/06/24 00:11:58;;;;;;;0.00;0.00;;;18.80;99.90;;;;;;5143556;27;20479;-66
2023/06/24 00:14:26;;;;;;;0.00;0.00;;;18.70;99.90;;;;;;5137936;27;20103;-66
2023/06/24 00:16:52;;;;;;;0.10;0.10;;;18.60;99.90;;;;;;5146677;27;20066;-67
2023/06/24 00:19:26;;;;;;;0.25;0.10;;;18.60;99.90;;;;;;5145530;27;20047;-66
2023/06/24 00:21:52;;;;;;;;;;;18.60;99.90;;;;;;5153400;27;20033;-66
2023/06/24 00:24:19;;;;;;;0.70;0.50;;;18.50;99.90;;;;;;5144277;27;20427;-66
2023/06/24 00:26:46;;;;;;;0.10;0.10;;;18.60;99.90;;;;;;5144394;27;20126;-66
2023/06/24 00:29:12;;;;;;;0.20;0.20;;;18.60;99.90;;;;;;5147373;27;20482;-66
2023/06/24 00:31:38;;;;;;;0.10;0.10;;;18.60;99.90;;;;;;5151517;27;20050;-66
2023/06/24 00:34:04;;;;;;;0.45;0.43;;;18.50;99.90;;;;;;5146061;27;20496;-66
2023/06/24 00:36:31;;;;;;;0.90;0.52;;;18.40;99.90;;;;;;5144012;27;20869;-67
2023/06/24 00:39:00;;;;;;;0.80;0.55;;;18.40;99.90;;;;;;5145235;27;20046;-66
2023/06/24 00:41:26;;;;;;;0.32;0.30;;;18.40;99.90;;;;;;5142732;27;20047;-66
2023/06/24 00:43:52;;;;;;;0.75;0.43;;;18.40;99.90;;;;;;5144064;27;20142;-67
2023/06/24 00:46:19;;;;;;;0.30;0.30;;;18.40;99.90;;;;;;5142574;27;20102;-66
2023/06/24 00:48:45;;;;;;;0.95;0.45;;;18.40;99.90;;;;;;5145086;27;20103;-67
2023/06/24 00:51:11;;;;;;;0.15;0.15;;;18.30;99.90;;;;;;5143664;27;20030;-66
2023/06/24 00:53:38;;;;;;;0.45;0.30;;;18.30;99.90;;;;;;5144054;27;20074;-66
2023/06/24 00:56:04;;;;;;;0.10;0.10;;;18.30;99.90;;;;;;5142400;27;20841;-67
2023/06/24 00:58:34;;;;;;;0.90;0.55;;;18.20;99.90;;;;;;5145669;27;20051;-66
2023/06/24 01:01:01;;;;;;;0.80;0.57;;;18.20;99.90;;;;;;5144149;27;20070;-66
2023/06/24 01:03:28;;;;;;;0.77;0.73;;;18.20;99.90;;;;;;5146445;27;20038;-66
2023/06/24 01:05:54;;;;;;;0.05;0.05;;;18.20;99.90;;;;;;5152294;27;20147;-66
2023/06/24 01:08:22;;;;;;;0.30;0.25;;;18.20;99.90;;;;;;5143316;27;20054;-66
2023/06/24 01:10:49;;;;;;;0.15;0.13;;;18.20;99.90;;;;;;5129107;27;20534;-66
2023/06/24 01:13:15;;;;;;;0.10;0.10;;;18.10;99.90;;;;;;5142066;27;20039;-67
2023/06/24 01:15:41;;;;;;;0.90;0.82;;;18.10;99.90;;;;;;5146184;27;20041;-66
2023/06/24 01:18:16;;;;;;;0.40;0.40;;;18.10;99.90;;;;;;5144647;27;20038;-67
2023/06/24 01:20:47;;;;;;;0.22;0.22;;;18.20;99.90;;;;;;5143707;27;20446;-66
2023/06/24 01:23:23;;;;;;;0.25;0.25;;;18.10;99.90;;;;;;5140696;27;20085;-67
2023/06/24 01:26:05;;;;;;;0.70;0.32;;;18.20;99.90;;;;;;5145429;27;20039;-66
2023/06/24 01:28:34;;;;;;;0.15;0.10;;;18.20;99.90;;;;;;5145221;27;20955;-66
2023/06/24 01:31:37;;;;;;;0.47;0.40;;;18.10;99.90;;;;;;5146025;27;20070;-66
2023/06/24 01:34:14;;;;;;;0.55;0.50;;;18.10;99.90;;;;;;5142452;27;20131;-66
2023/06/24 01:36:46;;;;;;;0.55;0.50;;;18.10;99.90;;;;;;5149881;27;20043;-66
2023/06/24 01:39:16;;;;;;;0.00;0.00;;;18.10;99.90;;;;;;5124384;27;20485;-66
2023/06/24 01:41:48;;;;;;;0.20;0.20;;;18.20;99.90;;;;;;5142941;27;20046;-66
2023/06/24 01:44:16;;;;;;;0.22;0.22;;;18.20;99.90;;;;;;5141438;27;20047;-66
2023/06/24 01:46:44;;;;;;;0.70;0.57;;;18.20;99.90;;;;;;5143106;27;20076;-66
2023/06/24 01:49:14;;;;;;;0.45;0.45;;;18.10;99.90;;;;;;5142537;27;20439;-66
2023/06/24 01:51:43;;;;;;;0.20;0.20;;;18.10;99.90;;;;;;5149626;27;20039;-66
2023/06/24 01:54:14;;;;;;;0.20;0.20;;;18.10;99.90;;;;;;5119799;27;20549;-66
2023/06/24 01:56:43;;;;;;;0.30;0.30;;;18.10;99.90;;;;;;5147806;27;20042;-66
2023/06/24 01:59:11;;;;;;;2.05;0.68;;;18.10;99.90;;;;;;5142754;27;20031;-66
2023/06/24 02:01:38;;;;;;;0.50;0.50;;;18.10;99.90;;;;;;5143285;27;20043;-66
2023/06/24 02:04:08;;;;;;;3.03;0.52;;;18.10;99.90;;;;;;5146144;27;20071;-66
2023/06/24 02:06:36;;;;;;;4.25;0.95;;;18.10;99.90;;;;;;5146075;27;20047;-66
2023/06/24 02:09:03;;;;;;;0.25;0.25;;;18.00;99.90;;;;;;5143719;27;20099;-67
2023/06/24 02:11:31;;;;;;;4.63;1.08;;;18.00;99.90;;;;;;5142553;27;20039;-66
2023/06/24 02:14:01;;;;;;;0.00;0.00;;;18.00;99.90;;;;;;5145899;27;20049;-67
2023/06/24 02:16:29;;;;;;;0.30;0.30;;;17.90;99.90;;;;;;5139516;27;20043;-66
2023/06/24 02:18:56;;;;;;;0.65;0.38;;;17.80;99.90;;;;;;5141561;27;20050;-66
2023/06/24 02:21:23;;;;;;;0.28;0.25;;;17.90;99.90;;;;;;5134279;27;20087;-66
2023/06/24 02:23:49;;;;;;;0.40;0.40;;;17.80;99.90;;;;;;5141214;27;20482;-66
2023/06/24 02:26:16;;;;;;;0.40;0.40;;;17.80;99.90;;;;;;5142420;27;20414;-67
2023/06/24 02:28:44;;;;;;;0.15;0.15;;;17.80;99.90;;;;;;5144103;27;20043;-67
2023/06/24 02:31:12;;;;;;;1.45;0.60;;;17.80;99.90;;;;;;5149037;27;20054;-66
2023/06/24 02:33:37;;;;;;;5.93;1.98;;;17.70;99.90;;;;;;5125902;27;20050;-66
2023/06/24 02:36:03;;;;;;;0.90;0.28;;;17.70;99.90;;;;;;5125913;27;20740;-66
2023/06/24 02:38:29;;;;;;;0.57;0.30;;;17.70;99.90;;;;;;5141966;27;20046;-67
2023/06/24 02:40:56;;;;;;;0.55;0.55;;;17.60;99.90;;;;;;5148872;27;20038;-67
2023/06/24 02:43:21;;;;;;;0.40;0.28;;;17.60;99.90;;;;;;5139753;27;20448;-66
2023/06/24 02:45:50;;;;;;;0.15;0.15;;;17.60;99.90;;;;;;5142239;27;20108;-66
2023/06/24 02:48:18;;;;;;;0.65;0.28;;;17.50;99.90;;;;;;5141839;27;20076;-66
2023/06/24 02:50:44;;;;;;;1.27;1.20;;;17.60;99.90;;;;;;5142157;27;20065;-66
2023/06/24 02:53:14;;;;;;;0.38;0.38;;;17.50;99.90;;;;;;5142906;27;20039;-66
2023/06/24 02:55:42;;;;;;;0.38;0.17;;;17.40;99.90;;;;;;5147380;27;20419;-66
2023/06/24 02:58:09;;;;;;;0.43;0.43;;;17.40;99.90;;;;;;5141171;27;20104;-66
2023/06/24 03:00:36;;;;;;;0.03;0.03;;;17.40;99.90;;;;;;5140515;27;20425;-66
2023/06/24 03:03:03;;;;;;;0.08;0.08;;;17.40;99.90;;;;;;5142470;27;20589;-66
2023/06/24 03:05:31;;;;;;;0.40;0.40;;;17.30;99.90;;;;;;5139861;27;20043;-66
2023/06/24 03:07:57;;;;;;;0.57;0.47;;;17.40;99.90;;;;;;5142962;27;20062;-66
2023/06/24 03:10:24;;;;;;;0.65;0.65;;;17.40;99.90;;;;;;5144767;27;20026;-66
2023/06/24 03:12:50;;;;;;;0.10;0.10;;;17.40;99.90;;;;;;5121712;28;20096;-66
2023/06/24 03:15:15;;;;;;;0.20;0.20;;;17.40;99.90;;;;;;5150658;27;20043;-66
2023/06/24 03:17:41;;;;;;;0.50;0.50;;;17.40;99.90;;;;;;5145279;27;20080;-66
2023/06/24 03:20:08;;;;;;;0.25;0.25;;;17.30;99.90;;;;;;5140940;27;20394;-66
2023/06/24 03:22:34;;;;;;;0.00;0.00;;;17.30;99.90;;;;;;5140881;27;20051;-66
2023/06/24 03:24:59;;;;;;;0.50;0.50;;;17.30;99.90;;;;;;5134725;27;20027;-66
2023/06/24 03:27:25;;;;;;;0.10;0.10;;;17.30;99.90;;;;;;5143605;27;20050;-67
2023/06/24 03:29:51;;;;;;;0.32;0.32;;;17.30;99.90;;;;;;5144126;27;20043;-66
2023/06/24 03:32:16;;;;;;;2.28;0.95;;;17.30;99.90;;;;;;5136809;27;20047;-66
2023/06/24 03:34:42;;;;;;;0.95;0.63;;;17.30;99.90;;;;;;5145631;27;20050;-67
2023/06/24 03:37:07;;;;;;;0.93;0.70;;;17.30;99.90;;;;;;5140709;27;20126;-67
2023/06/24 03:39:33;;;;;;;0.60;0.60;;;17.30;99.90;;;;;;5141984;27;20092;-67
2023/06/24 03:41:59;;;;;;;0.10;0.10;;;17.30;99.90;;;;;;5148580;27;20038;-66
2023/06/24 03:44:24;;;;;;;0.10;0.10;;;17.30;99.90;;;;;;5143089;27;20467;-67
2023/06/24 03:46:50;;;;;;;0.30;0.30;;;17.30;99.90;;;;;;5143483;27;20433;-66
2023/06/24 03:49:16;;;;;;;1.02;0.85;;;17.30;99.90;;;;;;5140123;27;20042;-67
2023/06/24 03:51:41;;;;;;;0.35;0.35;;;17.30;99.90;;;;;;5148311;27;20439;-66
2023/06/24 03:54:07;;;;;;;0.52;0.52;;;17.30;99.90;;;;;;5140093;27;20035;-66
2023/06/24 03:56:32;;;;;;;0.30;0.30;;;17.40;99.90;;;;;;5142439;27;20497;-66
2023/06/24 03:58:58;;;;;;;5.38;0.57;;;17.40;99.90;;;;;;5150287;27;20042;-66
2023/06/24 04:01:24;;;;;;;0.20;0.20;;;17.30;99.90;;;;;;5146817;27;20088;-66
2023/06/24 04:03:49;;;;;;;0.00;0.00;;;17.40;99.90;;;;;;5147628;27;20126;-66
2023/06/24 04:06:15;;;;;;;0.13;0.13;;;17.50;99.90;;;;;;5144640;27;20126;-67
2023/06/24 04:08:43;;;;;;;7.68;0.95;;;17.50;99.90;;;;;;5129836;27;20039;-67
2023/06/24 04:11:09;;;;;;;0.98;0.47;;;17.60;99.90;;;;;;5141206;27;20110;-67
2023/06/24 04:13:35;;;;;;;0.10;0.10;;;17.60;99.90;;;;;;5147099;27;20043;-66
2023/06/24 04:16:01;;;;;;;0.38;0.38;;;17.70;99.90;;;;;;5146510;27;20043;-67
2023/06/24 04:18:27;;;;;;;0.03;0.03;;;17.70;99.90;;;;;;5148624;27;20039;-67
2023/06/24 04:20:53;;;;;;;0.65;0.47;;;17.80;99.90;;;;;;5148840;27;20082;-66
2023/06/24 04:23:19;;;;;;;0.20;0.20;;;17.80;99.90;;;;;;5137890;27;20074;-67
2023/06/24 04:25:44;;;;;;;2.20;1.15;;;17.80;99.90;;;;;;5147153;27;20050;-67
2023/06/24 04:28:10;;;;;;;0.10;0.10;;;17.90;99.90;;;;;;5144634;27;20038;-67
2023/06/24 04:30:38;;;;;;;0.00;0.00;;;17.90;99.90;;;;;;5132346;27;20781;-66
2023/06/24 04:33:04;;;;;;;0.45;0.45;;;18.00;99.90;;;;;;5142814;27;20054;-66
2023/06/24 04:35:30;;;;;;;0.15;0.15;;;18.00;99.90;;;;;;5149259;27;20039;-67
2023/06/24 04:37:56;;;;;;;0.25;0.25;;;18.00;99.90;;;;;;5143531;27;20390;-67
2023/06/24 04:40:21;;;;;;;0.00;0.00;;;18.00;99.90;;;;;;5146004;27;20031;-67
2023/06/24 04:42:47;;;;;;;1.48;0.77;;;18.00;99.90;;;;;;5143159;27;20111;-67
2023/06/24 04:45:13;;;;;;;0.20;0.20;;;18.10;99.90;;;;;;5142764;27;20406;-67
2023/06/24 04:47:38;;;;;;;0.30;0.30;;;18.10;99.90;;;;;;5150022;27;20090;-67
2023/06/24 04:50:04;;;;;;;0.17;0.17;;;18.10;99.90;;;;;;5142456;27;20030;-67
2023/06/24 04:52:30;;;;;;;0.43;0.43;;;18.00;99.90;;;;;;5144537;27;20091;-66
2023/06/24 04:54:56;;;;;;;0.25;0.22;;;18.10;99.90;;;;;;5143605;27;20043;-67
2023/06/24 04:57:29;;;;;;;0.65;0.50;;;18.20;99.90;;;;;;5146314;27;20038;-67
2023/06/24 04:59:55;;;;;;;0.25;0.25;;;18.20;99.90;;;;;;5145446;27;20043;-67
2023/06/24 05:02:21;;;;;;;0.13;0.10;;;18.30;99.90;;;;;;5146813;27;20031;-67
2023/06/24 05:04:47;;;;;;;0.15;0.15;;;18.40;99.90;;;;;;5124741;27;20054;-66
2023/06/24 05:07:12;;;;;;;0.85;0.85;;;18.40;99.90;;;;;;5142859;27;20051;-67
2023/06/24 05:09:38;;;;;;;0.55;0.45;;;18.50;99.90;;;;;;5124027;27;20092;-67
2023/06/24 05:12:05;;;;;;;0.20;0.20;;;18.60;99.90;;;;;;5144904;27;20034;-67
2023/06/24 05:14:30;;;;;;;1.00;0.52;;;18.60;99.90;;;;;;5143396;27;20380;-67
2023/06/24 05:16:56;;;;;;;0.00;0.00;;;18.70;99.90;;;;;;5141898;27;20043;-67
2023/06/24 05:19:22;;;;;;;0.15;0.15;;;18.70;99.90;;;;;;5149568;27;20070;-67
2023/06/24 05:21:47;;;;;;;0.00;0.00;;;18.80;99.90;;;;;;5143134;27;20704;-67
2023/06/24 05:24:13;;;;;;;0.30;0.30;;;18.90;99.90;;;;;;5142965;27;20075;-67
2023/06/24 05:26:38;;;;;;;0.00;0.00;;;19.00;99.90;;;;;;5142610;27;20043;-67
2023/06/24 05:29:04;;;;;;;0.65;0.65;;;19.00;99.90;;;;;;5147406;27;20058;-67
2023/06/24 05:31:30;;;;;;;0.00;0.00;;;19.10;99.90;;;;;;5139411;27;20047;-67
2023/06/24 05:33:55;;;;;;;0.32;0.22;;;19.20;99.90;;;;;;5145336;27;20482;-67
2023/06/24 05:36:21;;;;;;;0.25;0.22;;;19.30;99.90;;;;;;5145466;27;20868;-66
2023/06/24 05:38:48;;;;;;;0.17;0.10;;;19.40;99.90;;;;;;5143717;27;20066;-67
2023/06/24 05:41:14;;;;;;;0.10;0.10;;;19.50;99.90;;;;;;5145602;27;20050;-67
2023/06/24 05:43:43;;;;;;;0.13;0.13;;;19.50;99.90;;;;;;5143331;27;20046;-67
2023/06/24 05:46:09;;;;;;;0.38;0.38;;;19.60;99.90;;;;;;5126104;27;20438;-67
2023/06/24 05:48:34;;;;;;;0.50;0.50;;;19.60;99.90;;;;;;5140029;27;20114;-67
2023/06/24 05:51:00;;;;;;;0.40;0.40;;;19.70;99.90;;;;;;5143912;27;20049;-67
2023/06/24 05:53:26;;;;;;;0.32;0.20;;;19.70;99.90;;;;;;5143037;27;20058;-67
2023/06/24 05:55:51;;;;;;;0.15;0.15;;;19.70;99.90;;;;;;5147941;27;20126;-67
2023/06/24 05:58:17;;;;;;;0.85;0.52;;;19.70;99.90;;;;;;5142251;27;20470;-66
2023/06/24 06:00:42;;;;;;;0.20;0.17;;;19.80;99.90;;;;;;5145842;27;20042;-66
2023/06/24 06:03:09;;;;;;;0.40;0.40;;;19.80;99.90;;;;;;5123727;27;20478;-67
2023/06/24 06:05:34;;;;;;;0.03;0.03;;;19.90;99.90;;;;;;5140453;27;20490;-66
2023/06/24 06:08:00;;;;;;;0.40;0.40;;;19.90;99.90;;;;;;5142559;27;20084;-67
2023/06/24 06:10:26;;;;;;;0.75;0.75;;;20.00;99.90;;;;;;5146853;27;20631;-66
2023/06/24 06:12:53;;;;;;;0.20;0.20;;;20.10;99.90;;;;;;5139510;27;20386;-67
2023/06/24 06:15:19;;;;;;;5.78;2.03;;;20.10;99.90;;;;;;5141466;27;20035;-67
2023/06/24 06:17:45;;;;;;;0.75;0.60;;;20.20;99.90;;;;;;5141977;27;20407;-67
2023/06/24 06:20:11;;;;;;;0.38;0.38;;;20.20;99.90;;;;;;5143038;27;20122;-66
2023/06/24 06:22:38;;;;;;;0.85;0.47;;;20.30;99.90;;;;;;5147055;27;20126;-67
2023/06/24 06:25:06;;;;;;;0.15;0.15;;;20.40;99.90;;;;;;5146702;27;20045;-66
2023/06/24 06:27:32;;;;;;;0.32;0.20;;;20.50;99.90;;;;;;5141349;27;20035;-67
2023/06/24 06:29:58;;;;;;;0.10;0.10;;;20.50;99.90;;;;;;5145996;27;20561;-66
2023/06/24 06:32:24;;;;;;;0.10;0.10;;;20.60;99.90;;;;;;5149034;27;20437;-66
2023/06/24 06:34:49;;;;;;;0.10;0.10;;;20.60;99.90;;;;;;5143699;27;20095;-66
2023/06/24 06:37:15;;;;;;;0.47;0.47;;;20.70;99.90;;;;;;5144339;27;20073;-67
2023/06/24 06:39:40;;;;;;;0.50;0.45;;;20.70;99.90;;;;;;5141883;27;20563;-67
2023/06/24 06:42:06;;;;;;;0.10;0.10;;;20.70;99.90;;;;;;5139842;27;20039;-67
2023/06/24 06:44:32;;;;;;;0.00;0.00;;;20.80;99.90;;;;;;5139000;27;20051;-66
2023/06/24 06:46:57;;;;;;;0.15;0.10;;;20.80;99.90;;;;;;5144727;27;20070;-67
2023/06/24 06:49:23;;;;;;;0.17;0.17;;;20.90;99.90;;;;;;5125646;27;20084;-66
2023/06/24 06:51:49;;;;;;;0.80;0.52;;;20.90;99.90;;;;;;5142113;27;20042;-66
2023/06/24 06:54:14;;;;;;;0.03;0.03;;;21.00;99.90;;;;;;5121607;27;20043;-67
2023/06/24 06:56:40;;;;;;;0.43;0.43;;;21.00;99.90;;;;;;5143844;27;20042;-67
2023/06/24 06:59:06;;;;;;;0.30;0.30;;;21.10;99.90;;;;;;5144610;27;20038;-67
2023/06/24 07:01:31;;;;;;;0.15;0.15;;;21.10;99.90;;;;;;5142364;27;20523;-67
2023/06/24 07:03:57;;;;;;;0.03;0.03;;;21.10;99.90;;;;;;5142181;27;20099;-67
2023/06/24 07:06:22;;;;;;;0.55;0.55;;;21.10;99.90;;;;;;5146515;27;20087;-67
2023/06/24 07:08:48;;;;;;;0.10;0.10;;;21.10;99.90;;;;;;5143151;27;20038;-67
2023/06/24 07:11:14;;;;;;;1.52;0.50;;;21.10;99.90;;;;;;5143361;27;20705;-67
2023/06/24 07:13:39;;;;;;;0.03;0.03;;;21.20;99.90;;;;;;5143065;27;20440;-67
2023/06/24 07:16:05;;;;;;;0.00;0.00;;;21.20;99.90;;;;;;5142524;27;20050;-67
2023/06/24 07:18:31;;;;;;;0.47;0.43;;;21.30;99.90;;;;;;5145327;27;20038;-67
2023/06/24 07:20:59;;;;;;;0.00;0.00;;;21.30;99.90;;;;;;5144654;27;20105;-66
2023/06/24 07:23:25;;;;;;;1.33;0.30;;;21.30;99.90;;;;;;5141214;27;20031;-67
2023/06/24 07:25:50;;;;;;;0.35;0.35;;;21.40;99.90;;;;;;5139527;27;20497;-67
2023/06/24 07:28:16;;;;;;;0.00;0.00;;;21.40;99.90;;;;;;5123814;27;20065;-67
2023/06/24 07:30:42;;;;;;;0.47;0.30;;;21.40;99.90;;;;;;5144260;27;20063;-67
2023/06/24 07:33:08;;;;;;;0.15;0.15;;;21.50;99.90;;;;;;5144970;27;20089;-67
2023/06/24 07:35:33;;;;;;;0.00;0.00;;;21.50;99.90;;;;;;5145662;27;20038;-67
2023/06/24 07:38:00;;;;;;;0.00;0.00;;;21.50;99.90;;;;;;5126108;27;20478;-67
2023/06/24 07:40:25;;;;;;;0.75;0.32;;;21.60;99.90;;;;;;5150384;27;20046;-67
2023/06/24 07:42:53;;;;;;;0.20;0.20;;;21.60;99.90;;;;;;5150427;27;20074;-67
2023/06/24 07:45:18;;;;;;;0.32;0.28;;;21.70;99.90;;;;;;5144381;27;20047;-67
2023/06/24 07:47:44;;;;;;;0.00;0.00;;;21.80;99.90;;;;;;5145230;27;20062;-67
2023/06/24 07:50:10;;;;;;;0.40;0.40;;;21.80;99.90;;;;;;5147688;27;20039;-67
2023/06/24 07:52:39;;;;;;;1.02;0.93;;;21.90;99.90;;;;;;5144300;27;20088;-67
2023/06/24 07:55:05;;;;;;;0.57;0.10;;;22.00;99.90;;;;;;5145786;27;20487;-67
2023/06/24 07:57:31;;;;;;;0.63;0.63;;;22.10;99.90;;;;;;5133858;27;20054;-68
2023/06/24 07:59:57;;;;;;;0.15;0.15;;;22.10;99.90;;;;;;5143647;27;20046;-68
2023/06/24 08:02:24;;;;;;;0.32;0.20;;;22.20;99.90;;;;;;5138244;27;20485;-68
2023/06/24 08:04:50;;;;;;;0.15;0.15;;;22.30;99.90;;;;;;5145084;27;20040;-68
2023/06/24 08:07:16;;;;;;;0.30;0.30;;;22.30;99.90;;;;;;5147138;27;20248;-67
2023/06/24 08:09:41;;;;;;;0.40;0.40;;;22.30;99.90;;;;;;5146909;27;20042;-68
2023/06/24 08:12:07;;;;;;;0.65;0.40;;;22.40;99.90;;;;;;5149244;27;20035;-67
2023/06/24 08:14:33;;;;;;;0.10;0.10;;;22.50;99.90;;;;;;5146682;27;20042;-67
2023/06/24 08:16:59;;;;;;;0.00;0.00;;;22.50;99.90;;;;;;5150545;27;20503;-68
2023/06/24 08:19:24;;;;;;;0.15;0.15;;;22.60;99.90;;;;;;5147558;27;20042;-68
2023/06/24 08:21:50;;;;;;;0.47;0.40;;;22.60;99.90;;;;;;5146821;27;20043;-68
2023/06/24 08:24:16;;;;;;;0.15;0.15;;;22.70;99.90;;;;;;5145008;27;20039;-67
2023/06/24 08:26:41;;;;;;;0.10;0.10;;;22.70;99.90;;;;;;5150538;27;20035;-67
2023/06/24 08:29:07;;;;;;;0.20;0.20;;;22.80;99.90;;;;;;5145598;27;20046;-68
2023/06/24 08:31:33;;;;;;;0.10;0.10;;;22.80;99.90;;;;;;5143186;27;20051;-68
2023/06/24 08:34:02;;;;;;;0.35;0.35;;;22.90;99.90;;;;;;5144814;27;20664;-68
2023/06/24 08:36:29;;;;;;;1.15;0.55;;;23.00;99.90;;;;;;5146153;27;20099;-68
2023/06/24 08:38:55;;;;;;;0.10;0.10;;;23.00;99.90;;;;;;5145092;27;20054;-68
2023/06/24 08:41:20;;;;;;;0.00;0.00;;;23.00;99.90;;;;;;5140565;27;20047;-68
2023/06/24 08:43:46;;;;;;;1.48;0.93;;;23.00;99.90;;;;;;5149050;27;20043;-68
2023/06/24 08:46:16;;;;;;;0.30;0.30;;;23.00;99.90;;;;;;5125771;27;20039;-68
2023/06/24 08:48:44;;;;;;;1.05;0.80;;;23.00;99.90;;;;;;5144230;27;20513;-69
2023/06/24 08:51:13;;;;;;;0.52;0.35;;;23.10;99.90;;;;;;5145800;27;20113;-68
2023/06/24 08:53:42;;;;;;;0.43;0.30;;;23.20;99.90;;;;;;5144657;27;20057;-68
2023/06/24 08:56:07;;;;;;;0.60;0.52;;;23.20;99.90;;;;;;5149040;27;20026;-68
2023/06/24 08:58:33;;;;;;;0.00;0.00;;;23.40;99.90;;;;;;5140668;27;20070;-68
2023/06/24 09:01:00;;;;;;;0.45;0.45;;;23.50;99.90;;;;;;5143575;27;20367;-68
2023/06/24 09:03:26;;;;;;;0.25;0.17;;;23.60;99.90;;;;;;5146092;27;20055;-68
2023/06/24 09:05:51;;;;;;;0.05;0.05;;;23.70;99.90;;;;;;5144189;27;20040;-68
2023/06/24 09:08:18;;;;;;;3.45;0.90;;;23.80;99.90;;;;;;5144599;27;20427;-68
2023/06/24 09:10:43;;;;;;;0.30;0.30;;;23.90;99.90;;;;;;5141920;27;20043;-69
2023/06/24 09:13:09;;;;;;;0.00;0.00;;;23.90;99.90;;;;;;5148719;27;20468;-69
2023/06/24 09:15:37;;;;;;;0.10;0.10;;;23.90;99.90;;;;;;5123737;27;20038;-69
2023/06/24 09:18:04;;;;;;;0.63;0.30;;;23.90;99.90;;;;;;5141369;27;20035;-69
2023/06/24 09:20:31;;;;;;;0.22;0.20;;;24.00;99.90;;;;;;5146170;27;20043;-68
2023/06/24 09:23:01;;;;;;;0.43;0.43;;;24.00;99.90;;;;;;5146055;27;20052;-68
2023/06/24 09:25:27;;;;;;;0.45;0.45;;;24.10;99.90;;;;;;5145807;27;20042;-69
2023/06/24 09:27:55;;;;;;;0.10;0.10;;;24.10;99.90;;;;;;5146010;27;20027;-69
2023/06/24 09:30:24;;;;;;;0.82;0.28;;;24.20;99.90;;;;;;5144233;27;20044;-68
2023/06/24 09:32:54;;;;;;;1.08;0.55;;;24.20;99.90;;;;;;5124339;27;20046;-69
2023/06/24 09:35:24;;;;;;;0.70;0.47;;;24.30;99.90;;;;;;5143768;27;20055;-69
2023/06/24 09:37:54;;;;;;;0.20;0.20;;;24.40;99.90;;;;;;5145047;27;20122;-68
2023/06/24 09:40:21;;;;;;;0.40;0.40;;;24.50;99.90;;;;;;5125098;27;20078;-68
2023/06/24 09:42:54;;;;;;;0.20;0.20;;;24.60;99.90;;;;;;5145375;27;20073;-69
2023/06/24 09:45:21;;;;;;;0.25;0.25;;;24.70;99.90;;;;;;5147959;27;20070;-68
2023/06/24 09:47:47;;;;;;;0.68;0.40;;;24.90;99.90;;;;;;5137403;27;20477;-69
2023/06/24 09:50:13;;;;;;;0.80;0.68;;;25.10;99.90;;;;;;5142477;27;20035;-69
2023/06/24 09:52:39;;;;;;;0.70;0.40;;;25.40;99.90;;;;;;5151444;27;20489;-69
2023/06/24 09:55:06;;;;;;;1.38;0.98;;;25.90;99.90;;;;;;5140993;27;20035;-69
2023/06/24 09:57:35;;;;;;;0.10;0.10;;;26.00;99.90;;;;;;5141031;27;20071;-68
2023/06/24 10:00:01;;;;;;;0.90;0.80;;;26.30;99.90;;;;;;5122890;27;20095;-68
2023/06/24 10:02:30;;;;;;;0.10;0.10;;;26.40;99.90;;;;;;5142422;27;20043;-68
2023/06/24 10:04:56;;;;;;;0.00;0.00;;;26.70;99.90;;;;;;5144042;27;20053;-69
2023/06/24 10:07:22;;;;;;;0.00;0.00;;;26.80;99.90;;;;;;5142257;27;20486;-69
2023/06/24 10:09:48;;;;;;;14.25;0.55;;;26.80;99.90;;;;;;5143764;27;20038;-69
2023/06/24 10:12:14;;;;;;;0.00;0.00;;;26.80;99.90;;;;;;5142730;27;20042;-68
2023/06/24 10:14:40;;;;;;;0.28;0.28;;;26.90;99.90;;;;;;5150045;27;20179;-68
2023/06/24 10:17:06;;;;;;;3.53;2.05;;;26.90;99.90;;;;;;5143131;27;20042;-68
2023/06/24 10:19:39;;;;;;;1.85;1.17;;;27.10;99.90;;;;;;5143668;27;20048;-69
2023/06/24 10:22:08;;;;;;;2.90;1.75;;;27.10;99.90;;;;;;5142070;27;20035;-69
2023/06/24 10:24:46;;;;;;;0.90;0.32;;;26.90;99.90;;;;;;5141728;27;20035;-69
2023/06/24 10:27:22;;;;;;;0.00;0.00;;;26.80;99.90;;;;;;5142362;27;20127;-69
2023/06/24 10:29:56;;;;;;;0.10;0.10;;;26.80;99.90;;;;;;5142810;27;20513;-69
2023/06/24 10:32:22;;;;;;;0.00;0.00;;;26.60;99.90;;;;;;5139914;27;20048;-69
2023/06/24 10:34:55;;;;;;;0.00;0.00;;;26.80;99.90;;;;;;5144460;27;20495;-69
2023/06/24 10:37:31;;;;;;;0.50;0.50;;;26.80;99.90;;;;;;5141935;27;20042;-69
2023/06/24 10:40:00;;;;;;;0.00;0.00;;;26.60;99.90;;;;;;5147109;27;20394;-69
2023/06/24 10:42:30;;;;;;;1.40;0.30;;;26.80;99.90;;;;;;5142146;27;20031;-69
2023/06/24 10:45:08;;;;;;;2.30;1.27;;;26.80;99.90;;;;;;5144799;27;20509;-69
2023/06/24 10:47:39;;;;;;;0.00;0.00;;;26.90;99.90;;;;;;5138747;27;20070;-68
2023/06/24 10:50:06;;;;;;;2.22;0.75;;;27.20;99.90;;;;;;5144597;27;20101;-69
2023/06/24 10:52:32;;;;;;;0.65;0.65;;;27.40;99.90;;;;;;5123660;27;20043;-69
2023/06/24 10:54:58;;;;;;;0.00;0.00;;;27.20;99.90;;;;;;5129322;27;20034;-69
2023/06/24 10:57:26;;;;;;;0.20;0.20;;;27.20;99.90;;;;;;5143907;27;20042;-69
2023/06/24 10:59:54;;;;;;;0.10;0.10;;;27.40;99.90;;;;;;5142281;27;20038;-69
2023/06/24 11:02:22;;;;;;;0.00;0.00;;;27.50;99.90;;;;;;5140475;27;20035;-69
2023/06/24 11:04:53;;;;;;;0.30;0.30;;;27.30;99.90;;;;;;5143926;27;20045;-69
2023/06/24 11:07:23;;;;;;;1.52;0.38;;;27.40;99.90;;;;;;5143883;27;20034;-68
2023/06/24 11:09:50;;;;;;;0.52;0.32;;;27.30;99.90;;;;;;5145578;27;20092;-68
2023/06/24 11:12:15;;;;;;;0.25;0.22;;;27.40;99.90;;;;;;5147930;27;20043;-68
2023/06/24 11:14:41;;;;;;;0.30;0.30;;;27.70;99.90;;;;;;5144645;27;20038;-68
2023/06/24 11:17:07;;;;;;;0.00;0.00;;;27.80;99.90;;;;;;5144886;27;20084;-68
2023/06/24 11:19:33;;;;;;;0.13;0.08;;;28.00;99.90;;;;;;5148937;27;20398;-68
2023/06/24 11:22:02;;;;;;;0.00;0.00;;;27.90;99.90;;;;;;5148403;27;20085;-68
2023/06/24 11:24:28;;;;;;;0.30;0.30;;;28.10;99.90;;;;;;5142210;27;20043;-69
2023/06/24 11:26:55;;;;;;;0.00;0.00;;;27.90;99.90;;;;;;5147284;27;20506;-68
2023/06/24 11:29:20;;;;;;;0.35;0.35;;;27.90;99.90;;;;;;5146791;27;20074;-68
2023/06/24 11:31:46;;;;;;;1.45;0.30;;;28.10;99.90;;;;;;5148298;27;20082;-68
2023/06/24 11:34:12;;;;;;;0.00;0.00;;;28.50;99.90;;;;;;5146151;27;20051;-68
2023/06/24 11:36:37;;;;;;;0.10;0.10;;;28.50;99.90;;;;;;5149576;27;20133;-68
2023/06/24 11:39:03;;;;;;;0.95;0.52;;;28.60;99.90;;;;;;5154739;27;20073;-69
2023/06/24 11:41:29;;;;;;;0.20;0.20;;;28.70;99.90;;;;;;5146549;27;20043;-68
2023/06/24 11:43:58;;;;;;;0.00;0.00;;;28.70;99.90;;;;;;5145498;27;20054;-69
2023/06/24 11:46:27;;;;;;;0.00;0.00;;;28.50;99.90;;;;;;5145040;27;20089;-68
2023/06/24 11:49:06;;;;;;;0.00;0.00;;;28.80;99.90;;;;;;5145329;27;20050;-68
2023/06/24 11:51:32;;;;;;;0.00;0.00;;;29.00;99.90;;;;;;5126521;27;20434;-68
2023/06/24 11:54:03;;;;;;;0.05;0.05;;;29.00;99.90;;;;;;5148244;27;20501;-69
2023/06/24 11:56:39;;;;;;;0.00;0.00;;;29.30;99.90;;;;;;5152450;27;20053;-68
2023/06/24 11:59:05;;;;;;;0.00;0.00;;;29.60;99.90;;;;;;5125533;27;20043;-69
2023/06/24 12:01:32;;;;;;;0.00;0.00;;;29.60;99.90;;;;;;5144417;27;20407;-69
2023/06/24 12:04:01;;;;;;;0.00;0.00;;;29.70;99.70;;;;;;5151831;27;20074;-68
2023/06/24 12:06:26;;;;;;;0.20;0.20;;;29.80;99.30;;;;;;5142746;27;20175;-69
2023/06/24 12:08:52;;;;;;;0.00;0.00;;;29.90;99.00;;;;;;5146517;27;20114;-68
2023/06/24 12:11:18;;;;;;;0.20;0.20;;;30.10;98.60;;;;;;5151916;27;20039;-68
2023/06/24 12:13:43;;;;;;;4.25;0.45;;;30.10;98.90;;;;;;5141036;27;20050;-68
2023/06/24 12:16:09;;;;;;;0.08;0.00;;;30.00;98.10;;;;;;5138357;27;20035;-69
2023/06/24 12:18:34;;;;;;;0.35;0.35;;;30.10;98.40;;;;;;5148301;27;20034;-68
2023/06/24 12:21:00;;;;;;;0.75;0.75;;;30.00;98.10;;;;;;5128784;27;20118;-69
2023/06/24 12:23:25;;;;;;;0.90;0.68;;;30.00;97.80;;;;;;5144325;27;20050;-68
2023/06/24 12:25:51;;;;;;;0.20;0.20;;;30.10;98.50;;;;;;5149502;27;20039;-69
2023/06/24 12:28:17;;;;;;;5.70;0.57;;;30.20;98.50;;;;;;5151141;27;20439;-69
2023/06/24 12:30:42;;;;;;;0.13;0.10;;;30.40;97.90;;;;;;5146783;27;20066;-68
2023/06/24 12:33:08;;;;;;;0.45;0.35;;;30.20;97.90;;;;;;5140858;27;20117;-68
2023/06/24 12:35:34;;;;;;;0.00;0.00;;;30.40;97.30;;;;;;5124585;27;20130;-69
2023/06/24 12:37:59;;;;;;;0.00;0.00;;;30.20;97.90;;;;;;5144745;27;20439;-68
2023/06/24 12:40:25;;;;;;;0.00;0.00;;;30.50;98.30;;;;;;5151930;27;20047;-69
2023/06/24 12:42:51;;;;;;;0.00;0.00;;;30.70;97.80;;;;;;5125342;27;20031;-68
2023/06/24 12:45:16;;;;;;;1.45;0.73;;;30.70;97.00;;;;;;5144790;27;20047;-69
2023/06/24 12:47:42;;;;;;;0.00;0.00;;;30.70;97.00;;;;;;5143359;27;20054;-68